Time;durP1;ratioP1;P1;durP2;ratioP2;P2;SDS_P1;SDS_P2;PMS_P1;PMS_P2;Temp;Humidity;BMP_temperature;BMP_pressure;BME280_temperature;BME280_humidity;BME280_pressure;Samples;Min_cycle;Max_cycle;Signal;HPM_P1;HPM_P2
2023/09/26 00:01:30;;;;;;;6.20;4.57;;;;;;;13.04;71.22;99566.59;5022660;28;20091;-81
2023/09/26 00:03:56;;;;;;;6.22;5.53;;;;;;;12.35;72.25;99575.97;5039021;28;20033;-81
2023/09/26 00:06:23;;;;;;;6.13;3.95;;;;;;;12.71;72.38;99556.72;5038189;28;20040;-82
2023/09/26 00:08:54;;;;;;;5.35;3.65;;;;;;;13.03;71.05;99575.72;5043153;28;20020;-82
2023/09/26 00:11:21;;;;;;;5.38;3.75;;;;;;;12.95;71.38;99554.69;5045902;28;20033;-81
2023/09/26 00:13:48;;;;;;;4.15;3.75;;;;;;;12.54;72.50;99568.50;5040432;28;20033;-80
2023/09/26 00:16:14;;;;;;;5.60;3.88;;;;;;;12.78;71.66;99569.94;5024933;28;20154;-80
2023/09/26 00:18:42;;;;;;;4.00;3.67;;;;;;;12.92;71.05;99573.13;5040591;28;20538;-80
2023/09/26 00:21:08;;;;;;;5.82;3.65;;;;;;;13.03;70.61;99578.38;5048214;28;20039;-80
2023/09/26 00:23:35;;;;;;;5.28;4.35;;;;;;;13.01;70.63;99577.00;5040832;28;20120;-80
2023/09/26 00:26:00;;;;;;;7.07;4.20;;;;;;;12.98;70.50;99572.94;5039224;28;20021;-80
2023/09/26 00:28:25;;;;;;;4.65;4.22;;;;;;;12.90;70.70;99576.03;5040366;28;20067;-80
2023/09/26 00:30:51;;;;;;;5.78;3.90;;;;;;;12.86;70.55;99571.44;5013779;28;20646;-80
2023/09/26 00:33:16;;;;;;;8.55;4.57;;;;;;;12.93;70.51;99588.94;5038780;28;20091;-80
2023/09/26 00:35:41;;;;;;;4.93;4.10;;;;;;;12.88;70.68;99577.34;5027301;28;20176;-79
2023/09/26 00:38:07;;;;;;;3.92;3.53;;;;;;;12.91;70.38;99574.97;5027061;28;20539;-79
2023/09/26 00:40:33;;;;;;;6.30;4.18;;;;;;;12.93;70.37;99586.25;5039212;28;20037;-79
2023/09/26 00:42:59;;;;;;;6.25;4.70;;;;;;;12.78;70.39;99567.28;5022223;28;20041;-82
2023/09/26 00:45:26;;;;;;;4.60;4.07;;;;;;;12.78;70.57;99586.03;5038887;28;20047;-82
2023/09/26 00:47:53;;;;;;;6.43;4.18;;;;;;;12.87;70.64;99581.88;5036061;28;20048;-82
2023/09/26 00:50:22;;;;;;;6.10;3.95;;;;;;;12.80;70.42;99574.00;5041916;28;20029;-82
2023/09/26 00:52:49;;;;;;;5.85;4.20;;;;;;;12.70;71.00;99575.72;5022952;28;20068;-82
2023/09/26 00:55:17;;;;;;;6.18;4.25;;;;;;;12.79;70.69;99579.63;5046828;28;20054;-82
2023/09/26 00:57:44;;;;;;;6.00;4.05;;;;;;;12.68;70.57;99569.81;5045973;28;20499;-82
2023/09/26 01:00:14;;;;;;;5.82;4.25;;;;;;;12.58;71.20;99575.00;5044062;28;20029;-82
2023/09/26 01:02:40;;;;;;;4.88;4.43;;;;;;;12.67;70.89;99594.97;5057051;28;20492;-82
2023/09/26 01:05:06;;;;;;;5.50;4.03;;;;;;;12.72;70.60;99582.47;5050721;28;20041;-81
2023/09/26 01:07:33;;;;;;;9.77;3.85;;;;;;;12.60;71.02;99560.31;5047231;28;20033;-82
2023/09/26 01:10:00;;;;;;;5.90;3.72;;;;;;;12.60;70.32;99564.88;5047769;28;20055;-82
2023/09/26 01:12:26;;;;;;;5.32;4.22;;;;;;;12.53;70.70;99562.34;5043268;28;20032;-82
2023/09/26 01:14:52;;;;;;;4.75;4.13;;;;;;;12.59;70.63;99565.91;5044722;28;20120;-82
2023/09/26 01:17:17;;;;;;;6.03;4.07;;;;;;;12.66;70.46;99572.75;5028225;28;20120;-82
2023/09/26 01:19:42;;;;;;;6.63;3.85;;;;;;;12.49;70.65;99566.53;5045749;28;20083;-82
2023/09/26 01:22:08;;;;;;;7.28;4.63;;;;;;;12.54;70.86;99574.69;5030930;28;20082;-81
2023/09/26 01:24:35;;;;;;;4.55;4.15;;;;;;;12.53;70.91;99567.72;5045538;28;20033;-81
2023/09/26 01:27:00;;;;;;;4.53;4.05;;;;;;;12.49;71.06;99563.09;5048411;28;20037;-81
2023/09/26 01:29:26;;;;;;;4.60;4.20;;;;;;;12.51;70.56;99550.25;5050323;28;20032;-82
2023/09/26 01:31:51;;;;;;;6.55;4.10;;;;;;;12.32;70.74;99528.25;5028438;28;20075;-81
2023/09/26 01:34:17;;;;;;;4.97;4.43;;;;;;;12.41;71.17;99548.22;5046321;28;20083;-82
2023/09/26 01:36:42;;;;;;;4.93;4.53;;;;;;;12.32;71.35;99547.00;5042228;28;20033;-81
2023/09/26 01:39:08;;;;;;;7.55;4.55;;;;;;;12.43;71.23;99548.78;5045173;28;20024;-81
2023/09/26 01:41:33;;;;;;;4.60;4.18;;;;;;;12.38;70.90;99545.22;5044370;28;21969;-81
2023/09/26 01:43:58;;;;;;;7.35;4.30;;;;;;;12.34;71.00;99544.88;5046309;28;20106;-82
2023/09/26 01:46:25;;;;;;;5.85;4.40;;;;;;;12.14;71.44;99523.16;5053624;28;20037;-81
2023/09/26 01:48:50;;;;;;;8.18;4.50;;;;;;;12.29;71.04;99538.66;5047693;28;20504;-82
2023/09/26 01:51:16;;;;;;;5.93;3.95;;;;;;;12.21;71.11;99544.41;5048307;28;20078;-81
2023/09/26 01:53:41;;;;;;;4.75;3.85;;;;;;;12.21;71.38;99536.38;5032009;28;20068;-81
2023/09/26 01:56:07;;;;;;;5.25;4.40;;;;;;;12.19;71.03;99533.91;5032441;28;20037;-81
2023/09/26 01:58:32;;;;;;;8.40;4.47;;;;;;;12.23;71.42;99544.97;5044729;28;20499;-81
2023/09/26 02:00:58;;;;;;;6.43;4.47;;;;;;;12.17;71.15;99541.38;5044568;28;20029;-81
2023/09/26 02:03:24;;;;;;;4.60;4.20;;;;;;;12.10;72.17;99546.06;5040258;28;20053;-81
2023/09/26 02:05:49;;;;;;;5.50;4.00;;;;;;;12.02;71.59;99531.22;5043198;28;20514;-81
2023/09/26 02:08:17;;;;;;;6.32;4.63;;;;;;;12.13;71.69;99544.78;5048363;28;20045;-81
2023/09/26 02:10:43;;;;;;;9.30;4.65;;;;;;;12.16;71.65;99544.31;5041393;28;20067;-82
2023/09/26 02:13:11;;;;;;;6.88;4.60;;;;;;;12.12;71.66;99544.00;5039003;28;20504;-82
2023/09/26 02:15:36;;;;;;;6.97;4.38;;;;;;;12.01;71.96;99539.50;5028217;28;20040;-81
2023/09/26 02:18:02;;;;;;;4.82;4.35;;;;;;;12.08;71.41;99528.66;5000952;28;20068;-81
2023/09/26 02:20:28;;;;;;;4.53;3.90;;;;;;;12.10;71.34;99526.56;5020848;28;20108;-82
2023/09/26 02:22:53;;;;;;;10.10;5.05;;;;;;;12.01;71.56;99537.63;5034818;28;20429;-82
2023/09/26 02:25:20;;;;;;;4.30;3.90;;;;;;;12.04;71.78;99522.97;5023935;28;20037;-82
2023/09/26 02:27:46;;;;;;;4.78;4.22;;;;;;;12.08;71.07;99526.78;5040763;28;20025;-83
2023/09/26 02:30:19;;;;;;;6.68;4.80;;;;;;;11.97;71.34;99523.09;5040502;28;20021;-82
2023/09/26 02:32:45;;;;;;;7.60;4.30;;;;;;;11.99;71.34;99533.59;5035779;28;20029;-82
2023/09/26 02:35:16;;;;;;;4.75;4.20;;;;;;;11.89;71.28;99515.47;5042624;28;20060;-82
2023/09/26 02:37:42;;;;;;;5.90;4.20;;;;;;;12.04;71.29;99529.13;5024043;28;20040;-82
2023/09/26 02:40:11;;;;;;;4.70;4.18;;;;;;;11.95;71.05;99527.88;5024812;28;20025;-82
2023/09/26 02:42:37;;;;;;;7.30;4.05;;;;;;;11.93;70.82;99513.13;5039047;28;20040;-82
2023/09/26 02:45:04;;;;;;;8.45;4.38;;;;;;;11.91;71.30;99533.97;5058250;28;20029;-82
2023/09/26 02:47:29;;;;;;;7.53;4.38;;;;;;;11.92;70.83;99530.25;5044572;28;20033;-82
2023/09/26 02:49:54;;;;;;;4.88;4.45;;;;;;;11.93;70.87;99530.00;5043972;28;20040;-82
2023/09/26 02:52:21;;;;;;;5.78;4.30;;;;;;;11.93;70.85;99538.03;5045606;28;20036;-82
2023/09/26 02:54:47;;;;;;;5.68;3.20;;;;;;;11.72;71.04;99524.50;5043320;28;20036;-83
2023/09/26 02:57:13;;;;;;;6.95;4.57;;;;;;;11.81;71.03;99512.38;5044851;28;20033;-82
2023/09/26 02:59:38;;;;;;;7.57;4.72;;;;;;;11.83;70.78;99520.97;5045574;28;20155;-82
2023/09/26 03:02:04;;;;;;;5.13;4.40;;;;;;;11.81;71.08;99515.06;5029575;28;20077;-82
2023/09/26 03:04:29;;;;;;;5.75;4.13;;;;;;;11.75;71.22;99516.81;5046353;28;20036;-82
2023/09/26 03:06:54;;;;;;;5.95;3.90;;;;;;;11.46;71.34;99472.41;5040498;28;20493;-82
2023/09/26 03:09:20;;;;;;;5.15;4.18;;;;;;;11.70;70.92;99519.41;5026751;28;20033;-82
2023/09/26 03:11:45;;;;;;;5.65;4.57;;;;;;;11.75;71.28;99524.84;5038577;28;20071;-82
2023/09/26 03:14:11;;;;;;;6.28;4.50;;;;;;;11.75;71.47;99532.88;5046045;28;20029;-82
2023/09/26 03:16:36;;;;;;;4.97;4.47;;;;;;;11.71;71.27;99529.03;5045482;28;20056;-82
2023/09/26 03:19:02;;;;;;;5.80;4.05;;;;;;;11.68;71.30;99515.34;5041697;28;20071;-82
2023/09/26 03:21:27;;;;;;;5.57;5.03;;;;;;;11.60;71.19;99521.84;5009225;28;20037;-82
2023/09/26 03:23:53;;;;;;;5.88;4.20;;;;;;;11.71;70.76;99521.03;5041391;28;20048;-82
2023/09/26 03:26:18;;;;;;;6.57;3.53;;;;;;;11.64;70.92;99509.63;5026771;28;20068;-82
2023/09/26 03:28:43;;;;;;;4.90;4.40;;;;;;;11.61;71.01;99514.66;5021494;28;20087;-82
2023/09/26 03:31:09;;;;;;;7.50;4.57;;;;;;;11.63;70.86;99497.31;5025699;28;20497;-82
2023/09/26 03:33:34;;;;;;;4.75;3.75;;;;;;;11.49;70.76;99498.63;5043564;28;20116;-82
2023/09/26 03:36:00;;;;;;;7.25;4.20;;;;;;;11.46;71.31;99504.47;5020378;28;20025;-81
2023/09/26 03:38:26;;;;;;;9.32;4.63;;;;;;;11.44;70.61;99490.53;5041810;28;20040;-81
2023/09/26 03:41:02;;;;;;;5.65;4.45;;;;;;;11.63;70.66;99508.00;5043975;28;20036;-81
2023/09/26 03:43:28;;;;;;;5.93;4.57;;;;;;;11.49;70.69;99490.63;5042195;28;20128;-81
2023/09/26 03:45:54;;;;;;;4.70;4.30;;;;;;;11.67;70.89;99497.66;5026689;28;20029;-81
2023/09/26 03:48:20;;;;;;;7.88;4.68;;;;;;;11.44;70.87;99495.06;5045487;28;20527;-81
2023/09/26 03:50:46;;;;;;;4.97;3.88;;;;;;;11.55;70.72;99500.38;5035896;28;20155;-81
2023/09/26 03:53:15;;;;;;;5.35;3.85;;;;;;;11.38;71.05;99486.13;5034009;28;20392;-81
2023/09/26 03:55:40;;;;;;;4.65;3.67;;;;;;;11.37;71.10;99492.53;5035741;28;20024;-81
2023/09/26 03:58:06;;;;;;;6.30;4.57;;;;;;;11.45;70.86;99505.50;5005691;28;20436;-81
2023/09/26 04:00:32;;;;;;;7.03;4.40;;;;;;;11.37;71.00;99489.88;5032434;28;20043;-81
2023/09/26 04:02:57;;;;;;;6.90;4.32;;;;;;;11.34;70.71;99476.97;5039208;28;20051;-82
2023/09/26 04:05:23;;;;;;;7.40;4.00;;;;;;;11.40;70.36;99483.25;5022674;28;20060;-81
2023/09/26 04:07:48;;;;;;;6.82;4.50;;;;;;;11.26;71.09;99485.38;4998099;28;20034;-81
2023/09/26 04:10:14;;;;;;;6.35;4.57;;;;;;;11.42;70.55;99500.66;5033140;28;20480;-81
2023/09/26 04:12:39;;;;;;;6.40;4.78;;;;;;;11.33;70.84;99497.53;5038829;28;20040;-82
2023/09/26 04:15:05;;;;;;;5.35;4.85;;;;;;;11.25;70.70;99487.22;5022435;28;20515;-81
2023/09/26 04:17:31;;;;;;;5.15;4.22;;;;;;;11.25;70.68;99489.91;5027593;28;20036;-81
2023/09/26 04:19:57;;;;;;;10.02;5.43;;;;;;;11.24;70.36;99487.47;5041091;28;20086;-81
2023/09/26 04:22:23;;;;;;;6.60;4.25;;;;;;;11.18;70.82;99481.19;5024890;28;20166;-81
2023/09/26 04:24:48;;;;;;;7.00;4.95;;;;;;;11.18;70.87;99483.06;5027252;28;20024;-81
2023/09/26 04:27:14;;;;;;;8.02;5.43;;;;;;;11.05;71.39;99497.47;5029741;28;20094;-80
2023/09/26 04:29:39;;;;;;;6.40;5.70;;;;;;;11.18;71.07;99501.78;5041669;28;20143;-81
2023/09/26 04:32:04;;;;;;;7.07;5.28;;;;;;;11.10;71.39;99483.41;5030073;28;20029;-81
2023/09/26 04:34:32;;;;;;;6.63;5.93;;;;;;;11.20;71.56;99492.44;5011028;28;20028;-81
2023/09/26 04:36:57;;;;;;;7.00;6.30;;;;;;;11.20;71.02;99486.31;5046317;28;20037;-81
2023/09/26 04:39:23;;;;;;;11.45;6.10;;;;;;;11.07;71.24;99463.34;5044566;28;20040;-81
2023/09/26 04:41:48;;;;;;;6.75;6.05;;;;;;;11.09;71.05;99489.81;5027453;28;20052;-81
2023/09/26 04:44:14;;;;;;;6.78;6.07;;;;;;;11.09;71.11;99479.16;5047222;28;20032;-81
2023/09/26 04:46:39;;;;;;;7.03;5.75;;;;;;;11.10;71.02;99468.22;5043037;28;20032;-81
2023/09/26 04:49:04;;;;;;;9.57;6.35;;;;;;;11.18;70.82;99485.75;5030896;28;20029;-81
2023/09/26 04:51:30;;;;;;;9.05;6.97;;;;;;;11.03;71.29;99482.75;5043843;28;20039;-81
2023/09/26 04:53:58;;;;;;;7.68;6.07;;;;;;;11.05;70.77;99481.47;5039174;28;20032;-82
2023/09/26 04:56:23;;;;;;;7.43;6.65;;;;;;;10.81;71.96;99477.19;5039198;28;20116;-82
2023/09/26 04:58:48;;;;;;;8.52;7.55;;;;;;;10.90;71.79;99491.03;5017686;28;20037;-82
2023/09/26 05:01:15;;;;;;;9.75;7.00;;;;;;;10.77;71.90;99477.94;5048252;28;20040;-82
2023/09/26 05:03:42;;;;;;;10.50;6.70;;;;;;;10.80;72.07;99490.78;5040385;28;20044;-82
2023/09/26 05:06:08;;;;;;;8.15;6.38;;;;;;;10.80;72.15;99486.28;5044773;28;20036;-82
2023/09/26 05:08:34;;;;;;;12.02;6.10;;;;;;;10.88;71.98;99482.41;5046445;28;20027;-82
2023/09/26 05:10:59;;;;;;;6.65;5.85;;;;;;;10.81;72.17;99481.75;5042936;28;20032;-82
2023/09/26 05:13:25;;;;;;;9.77;5.45;;;;;;;10.73;71.99;99474.06;5042171;28;20030;-82
2023/09/26 05:15:51;;;;;;;5.50;5.00;;;;;;;10.81;71.63;99463.84;5050906;28;20044;-82
2023/09/26 05:18:16;;;;;;;8.00;5.15;;;;;;;10.74;72.36;99465.84;5047544;28;20124;-82
2023/09/26 05:20:41;;;;;;;6.35;5.22;;;;;;;10.81;71.90;99481.75;5048035;28;20802;-82
2023/09/26 05:23:07;;;;;;;7.00;4.68;;;;;;;10.70;72.52;99485.25;5010098;28;20029;-82
2023/09/26 05:25:35;;;;;;;6.70;5.45;;;;;;;10.76;72.67;99485.13;5048474;28;20108;-82
2023/09/26 05:28:01;;;;;;;6.32;5.07;;;;;;;10.71;72.40;99476.16;5048491;28;20036;-81
2023/09/26 05:30:27;;;;;;;7.10;5.20;;;;;;;10.67;72.09;99462.50;5032367;28;20036;-82
2023/09/26 05:32:52;;;;;;;6.30;5.18;;;;;;;10.68;72.55;99461.44;5052069;28;20115;-81
2023/09/26 05:35:18;;;;;;;6.60;4.97;;;;;;;10.68;72.43;99455.31;5050519;28;20104;-82
2023/09/26 05:37:44;;;;;;;7.15;4.75;;;;;;;10.85;72.79;99478.38;5051549;28;20028;-81
2023/09/26 05:40:10;;;;;;;4.85;4.40;;;;;;;10.49;72.99;99454.59;5050980;28;20526;-82
2023/09/26 05:42:37;;;;;;;5.35;4.85;;;;;;;10.79;72.99;99483.84;5049292;28;20112;-82
2023/09/26 05:45:04;;;;;;;7.10;5.10;;;;;;;10.68;72.67;99468.66;5033918;28;20037;-82
2023/09/26 05:47:29;;;;;;;8.52;5.85;;;;;;;10.77;72.90;99469.91;5049968;28;20488;-82
2023/09/26 05:49:55;;;;;;;6.13;5.50;;;;;;;10.58;73.92;99474.56;5025737;28;20033;-81
2023/09/26 05:52:20;;;;;;;5.80;5.20;;;;;;;10.74;73.73;99476.53;5050289;28;20380;-82
2023/09/26 05:54:47;;;;;;;6.35;5.30;;;;;;;10.65;73.91;99463.75;5050419;28;20033;-82
2023/09/26 05:57:16;;;;;;;6.30;5.70;;;;;;;10.77;74.29;99486.72;5052376;28;20079;-82
2023/09/26 05:59:41;;;;;;;10.02;5.20;;;;;;;10.66;74.38;99468.06;5030857;28;20033;-82
2023/09/26 06:02:11;;;;;;;11.00;5.68;;;;;;;10.66;74.35;99468.06;5047679;28;20515;-82
2023/09/26 06:04:40;;;;;;;7.63;6.20;;;;;;;10.54;74.98;99466.22;5034094;28;20477;-81
2023/09/26 06:07:06;;;;;;;6.53;5.88;;;;;;;10.96;74.50;99487.41;5050950;28;20454;-82
2023/09/26 06:09:31;;;;;;;5.82;5.13;;;;;;;10.85;74.28;99480.22;5047620;28;20180;-81
2023/09/26 06:11:56;;;;;;;7.75;6.57;;;;;;;10.88;74.90;99482.41;5048115;28;20028;-82
2023/09/26 06:14:22;;;;;;;6.63;5.53;;;;;;;10.86;75.23;99496.00;5030047;28;20127;-82
2023/09/26 06:16:47;;;;;;;8.02;6.05;;;;;;;11.02;75.12;99492.63;5051934;28;20037;-82
2023/09/26 06:19:13;;;;;;;6.43;5.82;;;;;;;10.92;75.50;99492.41;5051899;28;20029;-81
2023/09/26 06:21:38;;;;;;;6.13;5.60;;;;;;;10.78;76.28;99480.34;5050221;28;20025;-82
2023/09/26 06:24:06;;;;;;;6.00;5.50;;;;;;;10.90;76.61;99501.72;5051508;28;20107;-82
2023/09/26 06:26:31;;;;;;;7.00;5.72;;;;;;;10.92;76.43;99495.06;5029470;28;20033;-82
2023/09/26 06:28:57;;;;;;;8.40;5.90;;;;;;;10.98;76.27;99504.03;5049646;28;20036;-82
2023/09/26 06:31:22;;;;;;;6.13;5.53;;;;;;;10.92;76.55;99496.94;5050580;28;20400;-82
2023/09/26 06:33:47;;;;;;;8.38;5.78;;;;;;;10.98;76.96;99501.34;5027315;28;20031;-81
2023/09/26 06:36:15;;;;;;;11.88;5.95;;;;;;;11.12;76.79;99505.38;5016274;28;20045;-82
2023/09/26 06:38:40;;;;;;;9.23;7.75;;;;;;;10.47;79.24;99502.06;5033170;28;20073;-82
2023/09/26 06:41:06;;;;;;;7.35;6.57;;;;;;;10.77;78.18;99496.63;5049831;28;20056;-82
2023/09/26 06:43:32;;;;;;;10.43;7.35;;;;;;;10.62;79.25;99510.41;5048428;28;20552;-82
2023/09/26 06:45:58;;;;;;;9.10;8.23;;;;;;;10.00;83.39;99517.19;5032311;28;20020;-81
2023/09/26 06:48:23;;;;;;;9.65;8.25;;;;;;;9.94;84.08;99506.59;5045824;28;20043;-82
2023/09/26 06:50:48;;;;;;;8.13;6.55;;;;;;;10.30;81.52;99498.47;5047914;28;20380;-82
2023/09/26 06:53:14;;;;;;;14.25;8.15;;;;;;;9.91;84.34;99505.19;5033571;28;20033;-81
2023/09/26 06:55:39;;;;;;;10.52;8.20;;;;;;;9.83;86.42;99505.50;5047299;28;20032;-81
2023/09/26 06:58:09;;;;;;;8.85;7.95;;;;;;;9.92;86.31;99506.00;5048545;28;20036;-81
2023/09/26 07:00:35;;;;;;;14.70;11.02;;;;;;;9.58;88.98;99503.00;5046922;28;20033;-80
2023/09/26 07:03:02;;;;;;;12.35;10.35;;;;;;;9.44;90.23;99493.53;5048478;28;20036;-81
2023/09/26 07:05:28;;;;;;;17.95;11.23;;;;;;;9.25;91.87;99496.47;5048882;28;20039;-81
2023/09/26 07:07:54;;;;;;;15.98;12.15;;;;;;;9.21;93.17;99500.63;5030469;28;20033;-81
2023/09/26 07:10:22;;;;;;;15.38;11.23;;;;;;;9.24;93.24;99505.50;5031775;28;20029;-81
2023/09/26 07:12:47;;;;;;;15.15;8.60;;;;;;;10.04;86.08;99505.00;5048126;28;20021;-81
2023/09/26 07:15:13;;;;;;;13.43;8.15;;;;;;;10.45;83.28;99517.50;5048882;28;20082;-81
2023/09/26 07:17:38;;;;;;;8.63;7.75;;;;;;;10.46;84.12;99506.59;5038133;28;20056;-81
2023/09/26 07:20:13;;;;;;;8.23;7.43;;;;;;;10.82;82.38;99500.19;5044322;28;20030;-82
2023/09/26 07:22:43;;;;;;;10.37;8.10;;;;;;;10.97;81.55;99508.53;5046600;28;20033;-81
2023/09/26 07:25:10;;;;;;;9.07;7.22;;;;;;;10.98;80.84;99493.34;5045998;28;20024;-82
2023/09/26 07:27:36;;;;;;;12.32;7.57;;;;;;;11.11;81.37;99504.59;5044724;28;20106;-81
2023/09/26 07:30:01;;;;;;;10.55;7.47;;;;;;;11.28;80.59;99501.97;5047270;28;20147;-81
2023/09/26 07:32:27;;;;;;;12.15;7.47;;;;;;;10.92;82.77;99491.63;5048023;28;20040;-81
2023/09/26 07:34:57;;;;;;;19.83;9.98;;;;;;;10.90;84.76;99507.06;5045470;28;20059;-81
2023/09/26 07:37:25;;;;;;;20.23;11.05;;;;;;;10.55;87.20;99496.38;5047196;28;20040;-82
2023/09/26 07:39:51;;;;;;;11.38;7.40;;;;;;;10.77;84.78;99516.09;5049106;28;20029;-81
2023/09/26 07:42:21;;;;;;;10.55;7.53;;;;;;;11.07;82.31;99505.28;5029399;28;20045;-81
2023/09/26 07:44:46;;;;;;;10.65;9.55;;;;;;;11.05;84.37;99513.50;5031150;28;20436;-82
2023/09/26 07:47:12;;;;;;;10.50;7.65;;;;;;;11.25;81.96;99507.78;5027831;28;20021;-81
2023/09/26 07:49:40;;;;;;;17.95;8.90;;;;;;;11.44;81.24;99503.91;5046773;28;20536;-81
2023/09/26 07:52:05;;;;;;;11.48;7.50;;;;;;;11.51;81.19;99499.22;5042575;28;20032;-81
2023/09/26 07:54:32;;;;;;;9.18;7.43;;;;;;;11.60;81.20;99519.19;5046542;28;20052;-82
2023/09/26 07:56:57;;;;;;;8.13;7.05;;;;;;;11.60;80.85;99503.13;5045957;28;20108;-81
2023/09/26 07:59:22;;;;;;;9.68;7.72;;;;;;;11.59;81.46;99512.22;5014466;28;20035;-81
2023/09/26 08:01:48;;;;;;;9.23;6.90;;;;;;;11.59;81.11;99490.84;5044344;28;20064;-82
2023/09/26 08:04:13;;;;;;;14.52;8.73;;;;;;;11.38;84.58;99504.84;5031250;28;20081;-82
2023/09/26 08:06:42;;;;;;;8.18;6.82;;;;;;;11.48;83.33;99496.22;5049534;28;20032;-81
2023/09/26 08:09:07;;;;;;;9.27;6.68;;;;;;;11.61;81.28;99488.72;5048995;28;20075;-81
2023/09/26 08:11:33;;;;;;;11.88;7.35;;;;;;;11.95;80.35;99503.81;5046652;28;20025;-81
2023/09/26 08:14:01;;;;;;;8.05;6.53;;;;;;;12.03;80.33;99498.06;5046588;28;20037;-81
2023/09/26 08:16:27;;;;;;;7.72;6.93;;;;;;;11.74;83.68;99495.66;5046367;28;20496;-81
2023/09/26 08:18:52;;;;;;;9.70;6.15;;;;;;;11.86;80.90;99481.19;5045152;28;20059;-81
2023/09/26 08:21:18;;;;;;;7.57;5.75;;;;;;;12.09;79.63;99477.56;5029050;28;20037;-81
2023/09/26 08:23:44;;;;;;;6.47;5.88;;;;;;;12.21;79.23;99462.22;5011204;28;20114;-81
2023/09/26 08:26:11;;;;;;;8.15;6.07;;;;;;;12.45;78.54;99479.75;5046496;28;20021;-81
2023/09/26 08:28:40;;;;;;;9.05;6.05;;;;;;;12.46;78.56;99491.25;5030017;28;20034;-81
2023/09/26 08:31:09;;;;;;;7.72;5.53;;;;;;;12.44;78.85;99483.50;5048423;28;20048;-81
2023/09/26 08:33:35;;;;;;;7.53;6.75;;;;;;;12.29;81.56;99485.13;5048619;28;20388;-81
2023/09/26 08:36:01;;;;;;;6.47;5.88;;;;;;;12.13;80.92;99468.00;5030250;28;20025;-81
2023/09/26 08:38:27;;;;;;;6.05;5.35;;;;;;;12.30;81.47;99476.81;5046108;28;20095;-81
2023/09/26 08:40:57;;;;;;;5.63;5.07;;;;;;;12.29;80.56;99477.09;5043022;28;20041;-81
2023/09/26 08:43:27;;;;;;;5.68;5.03;;;;;;;12.46;79.75;99468.00;5043927;28;20113;-81
2023/09/26 08:45:53;;;;;;;10.70;7.63;;;;;;;12.46;81.98;99473.34;5017835;28;20117;-82
2023/09/26 08:48:19;;;;;;;5.60;4.90;;;;;;;12.44;81.40;99474.63;5030722;28;20032;-81
2023/09/26 08:50:46;;;;;;;9.07;6.70;;;;;;;12.44;82.80;99472.78;5042266;28;20125;-81
2023/09/26 08:53:11;;;;;;;6.20;5.30;;;;;;;12.65;81.17;99477.38;5046053;28;20113;-81
2023/09/26 08:55:41;;;;;;;5.90;4.68;;;;;;;12.73;80.67;99476.16;5030808;28;20488;-81
2023/09/26 08:58:08;;;;;;;6.53;5.38;;;;;;;12.79;80.11;99467.94;5046361;28;20025;-81
2023/09/26 09:00:34;;;;;;;5.63;5.05;;;;;;;12.82;79.51;99463.91;5049178;28;20029;-81
2023/09/26 09:02:59;;;;;;;9.02;7.20;;;;;;;12.42;85.17;99458.00;5024847;28;20037;-81
2023/09/26 09:05:24;;;;;;;5.90;4.85;;;;;;;12.72;81.76;99464.63;5027472;28;20075;-81
2023/09/26 09:07:50;;;;;;;5.93;5.43;;;;;;;12.81;81.40;99473.03;5048916;28;20036;-81
2023/09/26 09:10:19;;;;;;;5.85;5.07;;;;;;;12.71;83.49;99456.84;5049229;28;20037;-82
2023/09/26 09:12:50;;;;;;;5.05;4.65;;;;;;;13.09;80.28;99454.13;5049562;28;20540;-82
2023/09/26 09:15:15;;;;;;;16.15;5.38;;;;;;;13.06;81.29;99456.50;5048918;28;20045;-81
2023/09/26 09:17:51;;;;;;;5.65;4.80;;;;;;;13.12;81.39;99453.66;5044182;28;20073;-81
2023/09/26 09:20:34;;;;;;;8.85;6.57;;;;;;;12.97;84.80;99461.47;5050689;28;20076;-81
2023/09/26 09:23:04;;;;;;;9.38;6.75;;;;;;;13.06;83.66;99449.25;5050433;28;20029;-81
2023/09/26 09:25:37;;;;;;;12.45;6.65;;;;;;;13.07;84.90;99452.75;5051403;28;20045;-82
2023/09/26 09:28:06;;;;;;;8.75;6.25;;;;;;;13.31;83.94;99441.53;5048059;28;20043;-81
2023/09/26 09:30:41;;;;;;;7.80;5.78;;;;;;;13.57;82.78;99442.59;5048167;28;20381;-81
2023/09/26 09:33:08;;;;;;;13.13;6.35;;;;;;;13.39;83.68;99426.84;5031114;28;20033;-81
2023/09/26 09:35:34;;;;;;;8.85;6.15;;;;;;;13.61;83.11;99438.34;5050547;28;20436;-81
2023/09/26 09:38:00;;;;;;;7.95;6.03;;;;;;;13.67;82.29;99444.59;5049937;28;20071;-82
2023/09/26 09:40:25;;;;;;;7.82;5.45;;;;;;;13.98;81.09;99425.00;5050363;28;20047;-82
2023/09/26 09:42:51;;;;;;;6.47;5.78;;;;;;;13.95;81.15;99436.25;5051059;28;20443;-82
2023/09/26 09:45:18;;;;;;;7.50;5.20;;;;;;;14.22;79.97;99437.00;5052612;28;20572;-81
2023/09/26 09:47:48;;;;;;;7.68;5.57;;;;;;;14.15;80.97;99437.22;5048342;28;20111;-82
2023/09/26 09:50:15;;;;;;;10.27;5.97;;;;;;;14.25;81.58;99431.94;5050457;28;20163;-82
2023/09/26 09:52:43;;;;;;;5.95;5.22;;;;;;;14.03;82.49;99412.44;5051325;28;20396;-82
2023/09/26 09:55:14;;;;;;;8.77;6.20;;;;;;;14.35;82.38;99430.44;5051057;28;20020;-81
2023/09/26 09:57:45;;;;;;;5.63;5.00;;;;;;;14.58;80.83;99433.53;5052271;28;20381;-82
2023/09/26 10:00:13;;;;;;;6.18;5.57;;;;;;;14.48;82.27;99429.97;5050212;28;20021;-82
2023/09/26 10:02:39;;;;;;;10.35;5.75;;;;;;;14.82;79.91;99418.59;5033235;28;20028;-82
2023/09/26 10:05:07;;;;;;;7.82;5.32;;;;;;;15.13;77.40;99429.47;5050959;28;20021;-82
2023/09/26 10:07:34;;;;;;;7.22;5.40;;;;;;;15.12;77.85;99409.03;5050807;28;20032;-82
2023/09/26 10:10:00;;;;;;;6.75;4.85;;;;;;;14.93;79.94;99412.22;5050063;28;20029;-82
2023/09/26 10:12:27;;;;;;;5.25;4.75;;;;;;;15.32;78.09;99401.84;5026806;28;20523;-82
2023/09/26 10:14:55;;;;;;;6.47;5.32;;;;;;;15.46;78.50;99405.69;5050082;28;20502;-82
2023/09/26 10:17:20;;;;;;;9.13;5.05;;;;;;;15.37;78.79;99401.06;5051635;28;20613;-82
2023/09/26 10:19:47;;;;;;;5.53;4.88;;;;;;;15.65;77.27;99403.28;5031683;28;20063;-82
2023/09/26 10:22:14;;;;;;;4.85;4.32;;;;;;;15.73;77.03;99400.84;5049431;28;20512;-82
2023/09/26 10:24:51;;;;;;;6.47;5.22;;;;;;;15.80;76.00;99392.53;5017684;28;20559;-82
2023/09/26 10:27:36;;;;;;;4.97;3.95;;;;;;;15.92;77.74;99403.84;5051465;28;20033;-82
2023/09/26 10:30:02;;;;;;;6.78;4.45;;;;;;;16.09;76.68;99404.38;5044975;28;20037;-82
2023/09/26 10:32:35;;;;;;;7.53;4.50;;;;;;;16.03;76.15;99402.75;5050918;28;20028;-82
2023/09/26 10:35:24;;;;;;;8.77;4.15;;;;;;;16.09;76.19;99399.00;5045560;28;20400;-82
2023/09/26 10:37:53;;;;;;;6.32;4.45;;;;;;;16.03;76.17;99391.97;5048821;28;20045;-82
2023/09/26 10:40:19;;;;;;;5.45;3.70;;;;;;;16.21;76.80;99396.00;5049645;28;20036;-82
2023/09/26 10:42:49;;;;;;;7.47;4.53;;;;;;;16.23;76.84;99397.34;5048261;28;20034;-82
2023/09/26 10:45:15;;;;;;;9.07;4.78;;;;;;;16.39;75.21;99387.34;5050328;28;20116;-82
2023/09/26 10:47:41;;;;;;;4.50;4.10;;;;;;;16.27;76.83;99378.78;5050838;28;20040;-82
2023/09/26 10:50:09;;;;;;;4.07;3.65;;;;;;;16.34;75.56;99377.38;5030912;28;20032;-82
2023/09/26 10:52:35;;;;;;;5.47;3.90;;;;;;;16.62;76.70;99383.28;5048938;28;20374;-82
2023/09/26 10:55:04;;;;;;;6.78;3.53;;;;;;;16.36;74.66;99356.38;5045999;28;20041;-82
2023/09/26 10:57:30;;;;;;;4.57;3.72;;;;;;;16.89;74.89;99376.44;5033672;28;20037;-82
2023/09/26 10:59:55;;;;;;;4.72;3.90;;;;;;;17.15;74.61;99358.22;5049096;28;20484;-82
2023/09/26 11:02:21;;;;;;;4.65;3.70;;;;;;;17.30;72.99;99371.63;5049456;28;20081;-82
2023/09/26 11:04:47;;;;;;;3.80;3.40;;;;;;;17.25;72.97;99377.84;5045813;28;20028;-82
2023/09/26 11:07:15;;;;;;;3.50;2.67;;;;;;;17.52;72.19;99363.16;5046869;28;20064;-82
2023/09/26 11:09:42;;;;;;;3.42;3.13;;;;;;;17.58;72.68;99353.94;5043522;28;20022;-83
2023/09/26 11:12:08;;;;;;;4.97;2.83;;;;;;;17.70;70.59;99354.38;5044633;28;20029;-82
2023/09/26 11:14:34;;;;;;;3.60;3.10;;;;;;;17.75;71.41;99362.47;5045442;28;20496;-83
2023/09/26 11:16:59;;;;;;;3.25;2.95;;;;;;;17.60;71.31;99359.88;5049107;28;20032;-82
2023/09/26 11:19:26;;;;;;;5.18;3.25;;;;;;;17.54;70.10;99359.09;5045518;28;20033;-82
2023/09/26 11:21:54;;;;;;;13.77;3.70;;;;;;;17.94;71.21;99345.28;5047339;28;20388;-83
2023/09/26 11:24:28;;;;;;;3.63;3.33;;;;;;;18.02;70.20;99353.84;5043397;28;20488;-82
2023/09/26 11:27:00;;;;;;;5.57;3.05;;;;;;;18.04;70.91;99346.28;5028387;28;20036;-82
2023/09/26 11:29:25;;;;;;;6.57;3.47;;;;;;;18.08;69.12;99350.00;5047477;28;20044;-82